Startpagina
METAR-TAF:

METAR-TAF

Vliegvelden :

Roman Tmetuchl International Airport

Koror, Babeldaob, Palau

breedte: 07-22N, lengte: 134-32E, hoogte: 54 m

Actueel weer

Dit bericht is 1 uur en het 21 minuten geleden gemaakt, om 06:50 UTC
Wind 6 kt uit het westzuidwesten
Temperatuur 30°C
Vochtigheid 70%
Druk 1008 hPa
Zicht: 24.1 km
Verspreide wolken op 1600 ft, Stapelwolken.
Gebroken wolken op 12000 ft
Gebroken wolken op 30000 ft

METAR: PTRO 200650Z 24006KT 15SM SCT016TCU BKN120 BKN300 30/24 A2978 RMK TCU ALQDS

Tijdstip: 17:11 (08:11 UTC)

Verwachting

Dit bericht is 2 uur en het 51 minuten geleden gemaakt, om 05:20 UTC
Verwachting geldig van 20 om 06 UTC tot 21 om 06 UTC
Wind 5 kt uit variabele richting
Zicht: 10 km
Verspreide wolken op 1600 ft
Gebroken wolken op 12000 ft
buien in de omgeving

TAF: PTRO 200520Z 2006/2106 VRB05KT P6SM VCSH SCT016 BKN120

Waarnemingen en weersverwachtingen van meer dan 4000 vliegvelden (METAR en TAF).

De beschikbare stations zijn de gele en rode punten op de kaart.

Ga met uw muis naar het station om de naam te zien.

Klik dan om waarnemingen en weersverwachtingen te zien.

kaart wijzigen: klik op de groene knoppen met een zwart kruis om in te zoomen, op de groene knop met een streepje om uit te zoomen of op de groene pijlen voor aangrenzende kaarten.


METAR-TAF: